Terminal Aerodrome Forecast
Issued by NWS Green Bay, WI

Home | Current Version | Previous Version | Text Only | Print | Product List | Glossary Off
Versions: 1 2 3 4 5 6 7 8 9 10 11 12 13 14 15 16 17 18 19 20 21 22 23 24 25 26 27 28 29 30 31 32 33 34 35

000
FTUS43 KGRB 301100
TAFGRB
TAF
KGRB 301127Z 3012/3112 34005KT 6SM BR SCT020
     FM301600 34005KT P6SM SCT035
     FM302000 28005KT P6SM VCSH SCT045 BKN080
     FM302300 19005KT P6SM VCSH SCT045 BKN080
     FM310300 24003KT 6SM BR SCT080=

USA.gov is the U.S. government's official web portal to all federal, state and local government web resources and services.